Time;durP1;ratioP1;P1;durP2;ratioP2;P2;SDS_P1;SDS_P2;PMS_P1;PMS_P2;Temp;Humidity;BMP_temperature;BMP_pressure;BME280_temperature;BME280_humidity;BME280_pressure;Samples;Min_cycle;Max_cycle;Signal;HPM_P1;HPM_P2
2023/02/14 00:02:53;;;;;;;29.90;18.00;;;;;;;3.84;89.84;100624.64;221216;1278;22487;-77
2023/02/14 00:07:55;;;;;;;29.00;17.00;;;;;;;3.84;89.90;100623.91;221352;1279;22541;-77
2023/02/14 00:13:03;;;;;;;23.40;15.50;;;;;;;3.83;89.75;100621.21;221298;1262;22543;-77
2023/02/14 00:18:05;;;;;;;21.70;15.20;;;;;;;3.82;89.75;100618.97;221286;1274;23005;-77
2023/02/14 00:23:07;;;;;;;28.30;17.40;;;;;;;3.83;89.71;100625.02;221301;1278;24292;-77
2023/02/14 00:28:09;;;;;;;24.80;15.60;;;;;;;3.83;89.64;100625.38;221542;1278;22530;-77
2023/02/14 00:33:11;;;;;;;21.90;15.60;;;;;;;3.81;89.40;100632.66;221219;1280;23673;-76
2023/02/14 00:38:14;;;;;;;23.40;15.60;;;;;;;3.78;89.39;100634.58;221432;1263;23287;-77
2023/02/14 00:43:16;;;;;;;23.30;15.30;;;;;;;3.78;89.48;100633.90;221410;1278;25356;-77
2023/02/14 00:48:22;;;;;;;21.10;14.80;;;;;;;3.79;89.44;100640.61;221501;1280;22556;-77
2023/02/14 00:53:24;;;;;;;20.30;14.80;;;;;;;3.80;89.31;100641.61;221463;1278;22545;-76
2023/02/14 00:58:27;;;;;;;22.70;15.30;;;;;;;3.80;89.20;100632.23;221289;1279;22591;-77
2023/02/14 01:03:29;;;;;;;23.90;16.00;;;;;;;3.79;89.31;100624.23;221071;1278;24233;-77
2023/02/14 01:08:31;;;;;;;22.90;14.90;;;;;;;3.79;89.06;100629.46;221098;1278;22780;-77
2023/02/14 01:13:34;;;;;;;21.90;15.00;;;;;;;3.79;89.22;100633.14;221052;1281;22535;-77
2023/02/14 01:18:37;;;;;;;22.30;14.70;;;;;;;3.78;89.01;100633.05;221155;1278;22542;-77
2023/02/14 01:23:39;;;;;;;20.30;14.40;;;;;;;3.75;88.89;100623.77;221165;1278;22622;-76
2023/02/14 01:28:43;;;;;;;18.60;13.30;;;;;;;3.75;88.90;100620.69;221342;1270;22537;-76
2023/02/14 01:33:47;;;;;;;20.90;14.50;;;;;;;3.74;88.76;100621.25;221190;1280;25454;-77
2023/02/14 01:38:55;;;;;;;19.80;14.50;;;;;;;3.73;88.65;100622.18;221353;1278;22594;-76
2023/02/14 01:44:04;;;;;;;20.80;14.60;;;;;;;3.71;88.60;100615.57;221321;1280;24247;-77
2023/02/14 01:49:17;;;;;;;20.30;14.70;;;;;;;3.69;88.64;100612.16;221536;1277;22530;-77
2023/02/14 01:54:23;;;;;;;18.80;13.20;;;;;;;3.69;88.50;100608.33;221458;1278;25395;-77
2023/02/14 01:59:29;;;;;;;17.50;13.20;;;;;;;3.70;88.50;100601.30;221149;1280;23940;-77
2023/02/14 02:04:35;;;;;;;19.80;13.40;;;;;;;3.69;88.24;100596.37;221305;1279;22661;-75
2023/02/14 02:09:48;;;;;;;18.00;13.30;;;;;;;3.67;88.15;100592.80;221316;1280;24339;-79
2023/02/14 02:14:53;;;;;;;21.30;14.20;;;;;;;3.68;88.25;100592.08;221064;1280;25464;-77
2023/02/14 02:20:07;;;;;;;18.00;14.10;;;;;;;3.68;88.05;100589.29;221346;1279;24189;-77
2023/02/14 02:25:43;;;;;;;18.10;12.90;;;;;;;3.69;87.88;100584.85;221404;1280;24282;-77
2023/02/14 02:31:19;;;;;;;18.00;12.10;;;;;;;3.70;87.78;100587.73;221365;1280;22945;-76
2023/02/14 02:36:28;;;;;;;15.00;11.50;;;;;;;3.70;87.52;100587.03;221493;1278;25226;-77
2023/02/14 02:41:44;;;;;;;17.10;11.70;;;;;;;3.70;87.39;100594.52;221335;1276;26449;-77
2023/02/14 02:47:18;;;;;;;15.00;11.30;;;;;;;3.69;87.20;100596.66;221120;1280;22634;-76
2023/02/14 02:57:50;;;;;;;19.00;13.20;;;;;;;3.67;87.10;100599.23;221454;1276;22567;-76
2023/02/14 03:08:16;;;;;;;19.30;13.90;;;;;;;3.65;87.15;100596.61;221364;1279;25385;-77
2023/02/14 03:13:30;;;;;;;21.60;14.70;;;;;;;3.62;87.07;100599.38;221331;1279;23162;-78
2023/02/14 03:18:53;;;;;;;21.90;15.00;;;;;;;3.62;87.33;100598.86;221320;1273;23013;-77
2023/02/14 03:23:58;;;;;;;24.60;15.90;;;;;;;3.61;87.34;100599.09;221348;1274;24232;-77
2023/02/14 03:29:00;;;;;;;22.60;15.10;;;;;;;3.59;87.49;100599.27;221418;1280;24384;-78
2023/02/14 03:34:22;;;;;;;22.10;15.50;;;;;;;3.53;87.39;100595.42;221522;1280;22545;-77
2023/02/14 03:40:01;;;;;;;21.70;14.90;;;;;;;3.47;87.56;100597.71;221328;1274;22658;-76
2023/02/14 03:45:08;;;;;;;23.70;16.10;;;;;;;3.42;87.55;100597.85;221048;1280;22540;-77
2023/02/14 03:50:17;;;;;;;23.10;15.50;;;;;;;3.41;87.67;100597.30;221204;1271;22601;-77
2023/02/14 03:55:33;;;;;;;23.60;15.90;;;;;;;3.39;87.72;100599.45;221160;1278;25365;-77
2023/02/14 04:00:39;;;;;;;22.80;15.50;;;;;;;3.39;87.77;100603.00;221485;1276;22544;-77
2023/02/14 04:05:51;;;;;;;23.60;15.60;;;;;;;3.38;87.81;100608.09;221356;1280;25796;-76
2023/02/14 04:10:56;;;;;;;23.40;15.80;;;;;;;3.38;87.77;100609.83;221584;1278;22618;-77
2023/02/14 04:15:59;;;;;;;43.20;25.80;;;;;;;3.39;88.04;100603.31;221225;1279;24398;-77
2023/02/14 04:21:05;;;;;;;23.60;16.30;;;;;;;3.39;87.74;100599.66;221419;1279;22555;-76
2023/02/14 04:26:07;;;;;;;22.50;15.20;;;;;;;3.40;87.86;100599.60;221334;1277;24382;-77
2023/02/14 04:31:10;;;;;;;23.00;15.40;;;;;;;3.41;87.94;100603.37;221314;1280;22540;-77
2023/02/14 04:36:13;;;;;;;22.70;15.80;;;;;;;3.37;87.65;100603.65;221488;1273;22687;-77
2023/02/14 04:41:15;;;;;;;22.50;15.90;;;;;;;3.34;87.78;100600.33;221284;1273;22641;-77
2023/02/14 04:46:17;;;;;;;23.50;15.40;;;;;;;3.31;87.73;100601.19;221232;1280;22580;-77
2023/02/14 04:51:19;;;;;;;22.50;15.10;;;;;;;3.31;87.82;100603.46;221280;1277;22793;-76
2023/02/14 04:56:22;;;;;;;22.50;15.00;;;;;;;3.30;87.50;100604.92;221320;1273;23365;-76
2023/02/14 05:01:24;;;;;;;20.00;14.80;;;;;;;3.30;87.69;100609.30;221217;1274;22536;-76
2023/02/14 05:06:27;;;;;;;20.90;14.00;;;;;;;3.27;87.73;100614.55;221169;1280;22550;-76
2023/02/14 05:11:29;;;;;;;21.60;14.90;;;;;;;3.23;87.49;100616.73;221208;1277;22547;-78
2023/02/14 05:16:32;;;;;;;22.30;14.90;;;;;;;3.21;87.53;100623.96;221474;1277;23974;-78
2023/02/14 05:21:34;;;;;;;26.80;16.60;;;;;;;3.22;87.73;100623.59;221375;1280;22648;-77
2023/02/14 05:26:35;;;;;;;22.60;15.90;;;;;;;3.24;87.89;100627.25;221468;1280;22544;-76
2023/02/14 05:31:38;;;;;;;23.30;15.40;;;;;;;3.26;87.68;100631.17;221448;1277;22751;-76
2023/02/14 05:36:40;;;;;;;24.60;15.50;;;;;;;3.25;87.70;100632.79;221390;1277;24324;-77
2023/02/14 05:41:42;;;;;;;22.30;14.80;;;;;;;3.24;87.56;100632.83;221295;1273;23020;-77
2023/02/14 05:46:44;;;;;;;23.10;16.00;;;;;;;3.22;87.39;100635.94;221163;1278;22545;-78
2023/02/14 05:51:46;;;;;;;23.20;16.40;;;;;;;3.22;87.46;100638.73;221233;1273;22779;-77
2023/02/14 05:56:49;;;;;;;22.50;15.20;;;;;;;3.21;87.32;100639.33;221414;1278;22537;-77
2023/02/14 06:01:52;;;;;;;19.20;13.10;;;;;;;3.16;87.12;100645.47;221310;1280;22660;-77
2023/02/14 06:06:55;;;;;;;17.20;12.40;;;;;;;3.15;87.47;100645.20;221303;1279;22645;-77
2023/02/14 06:11:57;;;;;;;21.90;14.30;;;;;;;3.12;87.20;100646.06;221425;1261;25094;-79
2023/02/14 06:16:59;;;;;;;23.80;15.00;;;;;;;3.09;87.34;100654.66;221248;1279;23962;-75
2023/02/14 06:22:02;;;;;;;25.20;15.20;;;;;;;3.07;87.45;100664.88;221332;1280;22533;-77
2023/02/14 06:27:04;;;;;;;30.60;16.10;;;;;;;3.04;87.25;100660.17;221295;1276;25369;-77
2023/02/14 06:32:06;;;;;;;24.90;15.90;;;;;;;3.02;87.45;100661.50;221453;1276;25373;-77
2023/02/14 06:37:09;;;;;;;22.10;15.20;;;;;;;3.02;87.35;100662.40;221379;1278;24235;-77
2023/02/14 06:42:11;;;;;;;23.30;15.80;;;;;;;3.07;87.80;100664.70;221315;1275;22575;-77
2023/02/14 06:47:13;;;;;;;23.10;15.00;;;;;;;3.16;87.97;100660.66;221393;1273;24229;-77
2023/02/14 06:52:16;;;;;;;20.20;13.70;;;;;;;3.25;87.95;100657.54;221346;1268;22575;-77
2023/02/14 06:57:17;;;;;;;18.00;13.10;;;;;;;3.30;87.74;100656.14;221658;1259;23855;-75
2023/02/14 07:02:19;;;;;;;19.70;13.50;;;;;;;3.37;87.58;100667.39;221932;1269;22659;-75
2023/02/14 07:07:25;;;;;;;23.40;15.10;;;;;;;3.42;87.57;100667.36;221566;1265;25310;-74
2023/02/14 07:12:27;;;;;;;24.80;15.30;;;;;;;3.47;87.54;100672.98;221800;1265;22556;-75
2023/02/14 07:17:29;;;;;;;18.80;13.70;;;;;;;3.55;87.49;100676.19;221778;1259;25296;-75
2023/02/14 07:22:32;;;;;;;19.80;13.70;;;;;;;3.61;87.28;100679.27;221882;1262;22537;-76
2023/02/14 07:27:45;;;;;;;18.70;12.80;;;;;;;3.65;87.08;100679.04;221828;1261;25423;-75
2023/02/14 07:32:48;;;;;;;20.00;13.60;;;;;;;3.69;86.90;100680.67;221816;1273;24418;-75
2023/02/14 07:37:50;;;;;;;18.50;12.50;;;;;;;3.74;86.95;100671.77;221750;1262;22536;-76
2023/02/14 07:42:55;;;;;;;16.30;12.70;;;;;;;3.80;86.85;100679.23;221922;1266;26234;-75
2023/02/14 07:48:00;;;;;;;17.60;12.90;;;;;;;3.88;86.88;100680.45;221965;1265;22790;-74
2023/02/14 07:53:04;;;;;;;19.10;13.00;;;;;;;3.95;86.72;100677.94;221767;1269;22537;-78
2023/02/14 07:58:07;;;;;;;20.00;12.90;;;;;;;4.01;86.70;100679.64;221804;1265;23239;-77
2023/02/14 08:03:09;;;;;;;17.60;12.90;;;;;;;4.08;86.50;100677.45;221651;1274;24246;-77
2023/02/14 08:08:11;;;;;;;18.70;13.00;;;;;;;4.15;86.25;100679.40;221877;1265;24375;-78
2023/02/14 08:13:14;;;;;;;17.70;12.50;;;;;;;4.22;86.10;100684.69;221886;1258;22540;-78
2023/02/14 08:18:18;;;;;;;21.00;13.40;;;;;;;4.30;85.83;100685.26;221990;1257;24224;-77
2023/02/14 08:23:21;;;;;;;19.00;13.20;;;;;;;4.30;85.53;100684.52;221997;1270;25429;-77
2023/02/14 08:28:24;;;;;;;21.00;13.80;;;;;;;4.36;85.60;100688.48;221914;1262;22539;-77
2023/02/14 08:33:26;;;;;;;17.40;13.00;;;;;;;4.44;85.45;100689.35;221309;1272;182946;-76
2023/02/14 08:38:29;;;;;;;19.70;13.50;;;;;;;4.49;85.07;100696.98;221919;1265;24321;-76
2023/02/14 08:43:31;;;;;;;18.60;13.70;;;;;;;4.54;84.99;100695.45;221808;1265;22886;-76
2023/02/14 08:48:38;;;;;;;21.80;14.30;;;;;;;4.62;85.03;100700.70;221846;1262;23327;-76
2023/02/14 08:53:42;;;;;;;19.40;13.70;;;;;;;4.72;84.94;100702.84;221723;1268;22555;-76
2023/02/14 08:58:45;;;;;;;20.80;13.50;;;;;;;4.79;84.66;100704.25;221815;1272;23920;-75
2023/02/14 09:03:48;;;;;;;19.00;13.70;;;;;;;4.87;84.44;100708.94;221595;1260;23722;-75
2023/02/14 09:08:53;;;;;;;16.30;12.30;;;;;;;4.99;84.32;100705.48;221649;1278;25247;-76
2023/02/14 09:13:56;;;;;;;16.20;11.50;;;;;;;5.11;83.99;100711.84;221490;1278;22593;-76
2023/02/14 09:18:58;;;;;;;20.30;12.70;;;;;;;5.19;83.67;100705.20;221741;1265;22564;-77
2023/02/14 09:24:00;;;;;;;14.20;10.90;;;;;;;5.31;83.79;100701.73;221969;1265;22572;-76
2023/02/14 09:29:02;;;;;;;14.50;11.10;;;;;;;5.45;83.51;100702.70;221674;1274;25395;-76
2023/02/14 09:34:08;;;;;;;19.10;12.50;;;;;;;5.59;83.19;100694.45;221930;1272;26404;-77
2023/02/14 09:39:13;;;;;;;19.00;12.80;;;;;;;5.74;83.10;100703.17;221696;1274;22621;-77
2023/02/14 09:44:39;;;;;;;14.20;10.30;;;;;;;5.91;83.03;100704.80;221886;1275;22573;-77
2023/02/14 09:49:45;;;;;;;12.00;9.10;;;;;;;6.05;82.47;100707.97;222079;1268;23077;-78
2023/02/14 09:55:03;;;;;;;15.00;10.60;;;;;;;6.11;81.86;100707.36;221705;1278;27715;-77
2023/02/14 10:00:44;;;;;;;14.30;9.60;;;;;;;6.19;82.06;100714.47;221466;1268;23446;-77
2023/02/14 10:06:09;;;;;;;13.50;9.60;;;;;;;6.23;81.30;100713.64;221800;1276;22597;-77
2023/02/14 10:11:18;;;;;;;11.40;9.00;;;;;;;6.27;81.06;100709.66;221630;1278;25511;-77
2023/02/14 10:16:31;;;;;;;12.90;9.50;;;;;;;6.34;81.13;100713.05;221738;1265;22682;-77
2023/02/14 10:21:59;;;;;;;14.60;9.50;;;;;;;6.43;80.88;100713.02;221922;1279;24263;-78
2023/02/14 10:27:30;;;;;;;14.30;9.60;;;;;;;6.50;80.38;100718.50;221769;1273;22623;-72
2023/02/14 10:32:50;;;;;;;12.90;9.80;;;;;;;6.52;80.59;100715.02;221622;1272;26407;-76
2023/02/14 10:38:17;;;;;;;13.00;9.20;;;;;;;6.57;80.28;100715.12;221571;1272;26108;-75
2023/02/14 10:43:20;;;;;;;14.30;9.30;;;;;;;6.58;79.75;100711.77;221749;1273;23280;-76
2023/02/14 10:48:41;;;;;;;16.00;9.40;;;;;;;6.64;79.79;100711.11;221774;1258;22798;-72
2023/02/14 10:54:14;;;;;;;13.30;9.90;;;;;;;6.69;79.37;100708.57;221830;1273;22548;-74
2023/02/14 10:59:37;;;;;;;12.60;9.20;;;;;;;6.78;79.52;100704.08;221731;1265;22770;-74
2023/02/14 11:04:41;;;;;;;12.20;9.20;;;;;;;6.90;79.54;100698.45;221948;1273;24100;-74
2023/02/14 11:09:43;;;;;;;12.60;8.80;;;;;;;6.95;78.96;100689.66;221700;1278;22555;-73
2023/02/14 11:14:45;;;;;;;12.30;9.70;;;;;;;7.03;79.06;100688.10;221806;1272;24228;-74
2023/02/14 11:20:05;;;;;;;13.70;9.40;;;;;;;7.10;78.82;100684.14;221864;1269;22566;-72
2023/02/14 11:25:22;;;;;;;14.30;9.30;;;;;;;7.15;78.74;100680.08;221851;1259;22578;-73
2023/02/14 11:30:33;;;;;;;12.80;8.90;;;;;;;7.13;78.41;100676.34;221588;1262;24794;-74
2023/02/14 11:35:37;;;;;;;13.70;9.20;;;;;;;7.07;77.61;100676.07;221501;1275;24928;-76
2023/02/14 11:40:39;;;;;;;11.90;8.90;;;;;;;7.05;78.34;100668.14;221817;1279;22678;-72
2023/02/14 11:45:43;;;;;;;10.60;7.80;;;;;;;7.10;78.32;100663.91;221628;1273;22751;-73
2023/02/14 11:51:05;;;;;;;10.30;7.00;;;;;;;7.11;77.80;100658.80;221355;1278;22547;-75
2023/02/14 11:56:07;;;;;;;10.10;7.40;;;;;;;7.07;77.40;100652.98;221722;1265;22557;-73
2023/02/14 12:01:19;;;;;;;7.50;5.70;;;;;;;7.10;77.25;100652.91;221957;1268;22515;-73
2023/02/14 12:06:24;;;;;;;5.30;3.80;;;;;;;7.11;77.19;100646.89;221894;1265;22586;-74
2023/02/14 12:11:28;;;;;;;7.00;4.60;;;;;;;7.13;76.50;100634.44;221867;1265;25346;-74
2023/02/14 12:16:48;;;;;;;10.10;5.30;;;;;;;7.15;76.12;100626.25;222162;1265;24253;-73
2023/02/14 12:22:01;;;;;;;7.20;5.00;;;;;;;7.14;75.86;100618.59;221898;1265;22554;-73
2023/02/14 12:27:22;;;;;;;6.40;4.60;;;;;;;7.14;75.99;100615.65;221788;1259;23247;-74
2023/02/14 12:32:30;;;;;;;7.20;4.70;;;;;;;7.13;75.78;100618.98;222102;1273;22551;-74
2023/02/14 12:38:12;;;;;;;9.80;6.20;;;;;;;7.09;75.93;100612.55;221693;1272;22544;-73
2023/02/14 12:43:42;;;;;;;7.30;6.30;;;;;;;7.03;75.75;100615.74;221750;1272;25380;-72
2023/02/14 12:48:59;;;;;;;9.30;7.10;;;;;;;6.93;75.97;100610.61;221749;1275;23804;-73
2023/02/14 12:54:19;;;;;;;9.10;6.90;;;;;;;6.87;75.89;100604.94;221518;1269;25303;-74
2023/02/14 12:59:41;;;;;;;7.50;6.20;;;;;;;6.84;75.93;100607.47;221709;1268;25311;-75
2023/02/14 13:04:43;;;;;;;8.00;5.60;;;;;;;6.87;76.53;100603.40;221809;1274;24225;-74
2023/02/14 13:10:24;;;;;;;10.70;7.60;;;;;;;6.89;76.23;100605.49;221521;1258;22561;-73
2023/02/14 13:15:50;;;;;;;8.50;7.00;;;;;;;6.91;76.57;100593.25;221569;1272;23127;-72
2023/02/14 13:21:07;;;;;;;13.10;9.30;;;;;;;6.92;76.64;100584.77;221519;1259;22559;-73
2023/02/14 13:26:26;;;;;;;10.90;8.10;;;;;;;6.93;76.39;100579.27;221755;1275;24193;-73
2023/02/14 13:31:30;;;;;;;10.90;8.80;;;;;;;6.86;76.25;100581.39;221628;1271;22532;-73
2023/02/14 13:36:33;;;;;;;10.20;8.50;;;;;;;6.77;76.06;100578.91;221715;1275;23941;-73
2023/02/14 13:41:40;;;;;;;10.90;8.00;;;;;;;6.69;76.47;100584.42;221772;1260;22543;-74
2023/02/14 13:46:50;;;;;;;10.80;7.90;;;;;;;6.64;76.32;100583.63;221575;1272;22552;-73
2023/02/14 13:51:56;;;;;;;9.90;8.00;;;;;;;6.61;76.42;100584.95;221711;1279;22496;-73
2023/02/14 13:57:27;;;;;;;11.40;8.00;;;;;;;6.58;76.69;100587.73;221453;1278;25049;-73
2023/02/14 14:02:40;;;;;;;9.80;6.80;;;;;;;6.59;76.42;100584.70;221988;1263;25425;-73
2023/02/14 14:07:42;;;;;;;10.40;8.10;;;;;;;6.55;76.91;100586.24;221501;1267;22665;-75
2023/02/14 14:12:44;;;;;;;9.20;7.80;;;;;;;6.54;76.41;100580.70;221452;1275;24514;-74
2023/02/14 14:18:09;;;;;;;11.50;8.60;;;;;;;6.54;76.65;100581.04;221816;1279;22545;-74
2023/02/14 14:23:33;;;;;;;9.40;8.00;;;;;;;6.52;76.64;100579.45;221745;1275;24383;-74
2023/02/14 14:28:35;;;;;;;9.80;7.90;;;;;;;6.46;76.23;100585.01;221264;1278;22546;-74
2023/02/14 14:33:37;;;;;;;11.20;8.30;;;;;;;6.42;76.43;100582.22;221410;1275;22553;-76
2023/02/14 14:38:48;;;;;;;10.90;8.30;;;;;;;6.38;76.80;100582.13;221539;1265;22539;-75
2023/02/14 14:43:51;;;;;;;13.00;8.50;;;;;;;6.34;76.98;100590.13;221447;1266;25373;-75
2023/02/14 14:48:55;;;;;;;9.30;8.20;;;;;;;6.30;76.86;100593.94;221386;1270;25242;-75
2023/02/14 14:54:15;;;;;;;10.20;8.20;;;;;;;6.25;76.92;100588.76;221649;1266;22561;-75
2023/02/14 14:59:21;;;;;;;13.00;8.20;;;;;;;6.19;76.81;100586.27;221795;1265;23795;-74
2023/02/14 15:04:34;;;;;;;12.50;8.20;;;;;;;6.15;76.64;100587.77;221852;1273;22620;-75
2023/02/14 15:09:36;;;;;;;10.90;8.50;;;;;;;6.09;76.79;100586.98;221337;1278;23258;-76
2023/02/14 15:14:42;;;;;;;11.40;8.20;;;;;;;6.05;76.89;100583.83;221432;1278;22537;-75
2023/02/14 15:19:52;;;;;;;12.30;8.60;;;;;;;5.99;77.08;100583.00;221248;1260;25591;-75
2023/02/14 15:24:56;;;;;;;14.00;10.00;;;;;;;5.91;77.06;100580.64;221143;1279;22777;-75
2023/02/14 15:30:21;;;;;;;14.50;10.20;;;;;;;5.80;77.02;100584.55;221197;1280;22546;-76
2023/02/14 15:35:28;;;;;;;15.30;10.50;;;;;;;5.69;77.19;100580.48;221553;1257;22543;-75
2023/02/14 15:40:35;;;;;;;15.60;11.80;;;;;;;5.61;77.20;100579.66;221453;1278;22680;-74
2023/02/14 15:45:45;;;;;;;20.50;13.10;;;;;;;5.56;77.47;100580.41;221248;1280;24235;-75
2023/02/14 15:50:54;;;;;;;18.10;13.50;;;;;;;5.50;77.61;100582.39;221422;1278;22534;-75
2023/02/14 15:56:06;;;;;;;16.80;11.50;;;;;;;5.43;77.82;100585.16;221096;1280;22737;-75
2023/02/14 16:01:09;;;;;;;18.80;12.70;;;;;;;5.37;77.73;100584.25;221149;1278;22530;-75
2023/02/14 16:06:34;;;;;;;17.20;11.70;;;;;;;5.30;77.81;100587.17;221164;1280;22602;-75
2023/02/14 16:11:37;;;;;;;16.20;11.70;;;;;;;5.24;77.87;100587.25;221006;1278;22536;-74
2023/02/14 16:17:05;;;;;;;19.30;12.60;;;;;;;5.19;78.09;100590.92;221403;1278;22550;-76
2023/02/14 16:22:22;;;;;;;16.10;11.40;;;;;;;5.16;78.17;100589.05;221375;1278;22481;-75
2023/02/14 16:27:24;;;;;;;16.80;11.80;;;;;;;5.12;78.21;100596.29;221223;1278;22581;-75
2023/02/14 16:32:27;;;;;;;17.00;11.50;;;;;;;5.09;78.06;100597.56;221323;1276;24546;-75
2023/02/14 16:37:32;;;;;;;14.20;10.60;;;;;;;5.08;78.30;100600.62;221119;1280;24157;-77
2023/02/14 16:42:38;;;;;;;15.40;11.20;;;;;;;5.06;78.19;100600.44;221163;1278;24404;-75
2023/02/14 16:47:40;;;;;;;16.50;11.90;;;;;;;5.04;78.25;100604.24;221334;1280;22566;-75
2023/02/14 16:52:45;;;;;;;21.90;12.20;;;;;;;5.04;78.28;100604.78;221299;1278;25348;-75
2023/02/14 16:57:50;;;;;;;18.60;12.80;;;;;;;5.03;78.40;100608.13;221048;1280;22544;-75
2023/02/14 17:03:03;;;;;;;22.40;13.90;;;;;;;5.02;78.47;100614.84;221146;1280;22585;-75
2023/02/14 17:08:08;;;;;;;23.30;14.80;;;;;;;5.00;78.50;100617.96;221420;1278;24407;-75
2023/02/14 17:13:11;;;;;;;23.10;15.80;;;;;;;4.97;78.59;100613.98;221168;1280;23762;-75
2023/02/14 17:18:15;;;;;;;25.50;16.50;;;;;;;4.96;78.70;100623.62;221323;1263;23950;-75
2023/02/14 17:23:19;;;;;;;25.30;15.70;;;;;;;4.96;78.74;100624.70;221553;1257;22583;-75
2023/02/14 17:28:24;;;;;;;28.30;17.70;;;;;;;4.94;78.75;100623.27;221236;1278;22707;-74
2023/02/14 17:33:31;;;;;;;28.80;18.70;;;;;;;4.90;78.79;100621.96;221177;1277;22542;-74
2023/02/14 17:38:34;;;;;;;32.80;20.90;;;;;;;4.84;78.65;100617.54;221301;1278;25438;-75
2023/02/14 17:43:36;;;;;;;32.10;20.30;;;;;;;4.77;78.83;100617.45;221300;1274;22565;-75
2023/02/14 17:48:39;;;;;;;35.70;21.70;;;;;;;4.75;78.91;100622.70;221217;1278;24194;-74
2023/02/14 17:53:42;;;;;;;34.60;20.80;;;;;;;4.74;79.05;100622.41;221179;1278;23793;-75
2023/02/14 17:58:46;;;;;;;39.10;23.40;;;;;;;4.71;79.08;100626.66;221137;1272;22541;-75
2023/02/14 18:03:50;;;;;;;37.20;23.50;;;;;;;4.67;78.93;100624.83;221312;1276;25291;-75
2023/02/14 18:08:56;;;;;;;38.40;26.30;;;;;;;4.63;79.16;100617.36;221325;1277;22654;-75
2023/02/14 18:13:58;;;;;;;36.30;24.60;;;;;;;4.65;79.32;100618.14;221367;1278;22539;-75
2023/02/14 18:19:02;;;;;;;37.00;22.60;;;;;;;4.67;79.47;100619.03;221111;1280;26888;-74
2023/02/14 18:24:05;;;;;;;33.50;23.40;;;;;;;4.66;79.24;100618.80;221205;1278;22593;-75
2023/02/14 18:29:07;;;;;;;36.10;24.60;;;;;;;4.61;79.38;100622.94;221026;1278;22957;-75
2023/02/14 18:34:10;;;;;;;46.20;28.60;;;;;;;4.59;79.39;100622.39;221282;1278;24266;-74
2023/02/14 18:39:12;;;;;;;46.60;29.00;;;;;;;4.53;79.42;100614.78;221248;1278;25291;-74
2023/02/14 18:44:14;;;;;;;46.80;29.40;;;;;;;4.49;79.51;100612.21;221252;1276;25293;-74
2023/02/14 18:49:16;;;;;;;47.30;30.00;;;;;;;4.48;79.66;100607.75;221276;1278;25379;-75
2023/02/14 18:54:18;;;;;;;52.00;29.70;;;;;;;4.49;79.89;100609.47;221424;1280;23054;-75
2023/02/14 18:59:20;;;;;;;42.80;27.60;;;;;;;4.48;79.83;100607.61;221246;1278;22595;-75
2023/02/14 19:04:22;;;;;;;41.00;24.30;;;;;;;4.47;79.95;100607.70;221332;1279;22743;-75
2023/02/14 19:09:26;;;;;;;37.10;22.80;;;;;;;4.41;79.95;100605.15;221173;1280;22532;-74
2023/02/14 19:14:28;;;;;;;39.90;24.70;;;;;;;4.36;80.06;100601.64;220977;1276;22533;-75
2023/02/14 19:19:30;;;;;;;38.40;22.40;;;;;;;4.33;80.16;100592.73;221287;1280;24277;-75
2023/02/14 19:24:34;;;;;;;35.80;22.80;;;;;;;4.35;80.55;100586.71;221294;1278;22566;-74
2023/02/14 19:29:37;;;;;;;31.60;21.60;;;;;;;4.36;80.47;100586.42;221392;1280;24356;-74
2023/02/14 19:34:40;;;;;;;36.10;21.80;;;;;;;4.35;80.69;100587.71;221164;1280;22536;-74
2023/02/14 19:39:44;;;;;;;37.30;23.00;;;;;;;4.33;80.60;100582.48;221200;1278;25355;-75
2023/02/14 19:44:49;;;;;;;37.60;22.60;;;;;;;4.30;80.62;100582.66;221345;1279;22562;-74
2023/02/14 19:49:51;;;;;;;42.90;26.40;;;;;;;4.30;80.85;100584.23;221272;1280;22662;-74
2023/02/14 19:54:57;;;;;;;49.50;28.30;;;;;;;4.30;80.99;100587.90;221332;1279;24401;-74
2023/02/14 20:00:00;;;;;;;46.30;28.30;;;;;;;4.23;80.75;100591.86;221201;1279;22550;-75
2023/02/14 20:05:15;;;;;;;49.80;28.60;;;;;;;4.20;81.11;100596.39;221190;1280;23508;-74
2023/02/14 20:10:18;;;;;;;56.00;30.60;;;;;;;4.16;80.94;100591.61;221500;1279;24384;-74
2023/02/14 20:15:20;;;;;;;52.60;30.60;;;;;;;4.16;81.11;100587.09;221123;1278;22598;-73
2023/02/14 20:20:22;;;;;;;56.10;32.10;;;;;;;4.18;81.19;100588.19;221500;1278;22536;-74
2023/02/14 20:25:24;;;;;;;50.90;30.40;;;;;;;4.22;81.45;100595.27;221211;1280;22601;-75
2023/02/14 20:30:27;;;;;;;45.60;29.50;;;;;;;4.24;81.44;100592.11;221262;1280;22539;-75
2023/02/14 20:35:32;;;;;;;50.40;29.50;;;;;;;4.28;81.40;100587.55;221036;1278;192242;-75
2023/02/14 20:40:39;;;;;;;46.90;30.20;;;;;;;4.31;81.24;100587.17;221326;1276;22544;-74
2023/02/14 20:45:42;;;;;;;41.80;26.40;;;;;;;4.30;81.21;100584.94;221331;1281;24281;-74
2023/02/14 20:50:43;;;;;;;44.20;28.30;;;;;;;4.31;81.24;100582.39;221307;1279;22536;-75
2023/02/14 20:55:50;;;;;;;40.90;25.70;;;;;;;4.30;81.15;100580.06;221308;1280;24298;-74
2023/02/14 21:00:52;;;;;;;59.40;37.00;;;;;;;4.29;81.26;100577.49;221102;1279;25313;-75
2023/02/14 21:05:57;;;;;;;39.10;26.00;;;;;;;4.30;81.23;100575.33;221276;1280;23335;-74
2023/02/14 21:10:59;;;;;;;36.40;23.40;;;;;;;4.32;81.25;100569.80;220928;1281;24524;-75
2023/02/14 21:16:14;;;;;;;40.00;25.20;;;;;;;4.33;80.98;100567.95;221218;1279;25498;-75
2023/02/14 21:21:24;;;;;;;39.20;24.80;;;;;;;4.32;81.18;100569.98;221225;1280;22534;-75
2023/02/14 21:26:27;;;;;;;40.40;26.00;;;;;;;4.32;80.91;100561.59;221171;1279;22543;-76
2023/02/14 21:31:30;;;;;;;39.30;25.90;;;;;;;4.31;81.11;100561.11;221233;1281;22534;-74
2023/02/14 21:36:36;;;;;;;46.60;28.40;;;;;;;4.33;81.21;100555.59;221358;1277;22700;-75
2023/02/14 21:41:38;;;;;;;46.70;29.20;;;;;;;4.31;81.28;100550.83;221218;1276;24202;-74
2023/02/14 21:46:41;;;;;;;54.20;31.20;;;;;;;4.30;81.27;100548.70;220999;1280;25408;-75
2023/02/14 21:51:45;;;;;;;51.70;32.60;;;;;;;4.31;81.44;100548.95;221487;1273;25271;-74
2023/02/14 21:56:48;;;;;;;49.50;30.40;;;;;;;4.33;81.44;100546.33;221290;1274;22538;-75
2023/02/14 22:01:51;;;;;;;49.20;29.90;;;;;;;4.34;81.34;100548.05;221198;1280;22543;-74
2023/02/14 22:06:53;;;;;;;48.70;29.20;;;;;;;4.35;81.10;100548.49;221357;1280;25434;-74
2023/02/14 22:11:58;;;;;;;47.20;29.10;;;;;;;4.36;81.13;100540.58;221273;1281;22575;-74
2023/02/14 22:17:04;;;;;;;51.80;31.90;;;;;;;4.36;81.12;100534.80;221154;1280;22643;-74
2023/02/14 22:22:06;;;;;;;56.20;35.00;;;;;;;4.37;81.07;100535.80;220856;1276;24275;-74
2023/02/14 22:27:08;;;;;;;55.90;33.20;;;;;;;4.35;81.09;100532.27;221362;1276;22609;-74
2023/02/14 22:32:10;;;;;;;49.10;30.30;;;;;;;4.35;81.05;100527.91;221155;1278;22570;-74
2023/02/14 22:37:13;;;;;;;30.40;21.60;;;;;;;4.36;80.74;100524.71;221157;1280;22541;-74
2023/02/14 22:42:16;;;;;;;32.10;22.50;;;;;;;4.37;80.73;100521.80;221330;1278;22631;-75
2023/02/14 22:47:18;;;;;;;36.60;22.60;;;;;;;4.41;80.64;100520.01;221330;1280;24157;-73
2023/02/14 22:52:20;;;;;;;26.40;20.20;;;;;;;4.37;80.38;100517.79;221303;1280;22552;-74
2023/02/14 22:57:22;;;;;;;26.70;19.30;;;;;;;4.36;80.22;100515.81;221137;1280;22543;-72
2023/02/14 23:02:24;;;;;;;24.60;17.80;;;;;;;4.35;80.18;100512.02;220938;1280;25497;-74
2023/02/14 23:07:27;;;;;;;24.50;17.20;;;;;;;4.33;80.16;100503.77;221232;1280;22579;-73
2023/02/14 23:23:11;;;;;;;21.90;16.60;;;;;;;4.32;80.00;100500.38;221441;1277;25293;-74
2023/02/14 23:28:13;;;;;;;21.40;15.50;;;;;;;4.30;79.97;100493.04;221252;1280;25406;-75
2023/02/14 23:33:17;;;;;;;20.40;15.40;;;;;;;4.27;79.76;100490.30;221409;1277;24280;-74
2023/02/14 23:38:21;;;;;;;22.80;16.70;;;;;;;4.21;79.59;100487.33;221262;1277;24243;-73
2023/02/14 23:43:23;;;;;;;24.00;16.70;;;;;;;4.18;79.69;100487.69;221146;1279;22543;-74